sensor_id;sensor_type;location;lat;lon;timestamp;P1;durP1;ratioP1;P2;durP2;ratioP2
52033;SDS011;38045;52.988;6.536;2022-09-09T00:01:08;11.90;;;10.70;;
52033;SDS011;38045;52.988;6.536;2022-09-09T00:06:22;15.00;;;12.30;;
52033;SDS011;38045;52.988;6.536;2022-09-09T00:12:14;12.32;;;11.10;;
52033;SDS011;38045;52.988;6.536;2022-09-09T00:14:26;11.32;;;10.20;;
52033;SDS011;38045;52.988;6.536;2022-09-09T00:17:06;16.55;;;12.27;;
52033;SDS011;38045;52.988;6.536;2022-09-09T00:19:56;14.77;;;11.23;;
52033;SDS011;38045;52.988;6.536;2022-09-09T00:22:28;13.48;;;11.98;;
52033;SDS011;38045;52.988;6.536;2022-09-09T00:25:10;14.45;;;11.50;;
52033;SDS011;38045;52.988;6.536;2022-09-09T00:27:45;15.43;;;10.90;;
52033;SDS011;38045;52.988;6.536;2022-09-09T00:32:48;12.93;;;11.73;;
52033;SDS011;38045;52.988;6.536;2022-09-09T00:35:25;14.40;;;10.00;;
52033;SDS011;38045;52.988;6.536;2022-09-09T00:38:10;11.80;;;10.60;;
52033;SDS011;38045;52.988;6.536;2022-09-09T00:43:30;14.02;;;11.48;;
52033;SDS011;38045;52.988;6.536;2022-09-09T00:46:05;12.98;;;10.35;;
52033;SDS011;38045;52.988;6.536;2022-09-09T00:49:00;13.20;;;9.93;;
52033;SDS011;38045;52.988;6.536;2022-09-09T00:55:15;12.77;;;10.43;;
52033;SDS011;38045;52.988;6.536;2022-09-09T00:57:46;11.60;;;10.60;;
52033;SDS011;38045;52.988;6.536;2022-09-09T01:00:22;12.43;;;9.52;;
52033;SDS011;38045;52.988;6.536;2022-09-09T01:05:54;9.75;;;8.63;;
52033;SDS011;38045;52.988;6.536;2022-09-09T01:08:52;12.38;;;10.85;;
52033;SDS011;38045;52.988;6.536;2022-09-09T01:11:55;10.93;;;9.82;;
52033;SDS011;38045;52.988;6.536;2022-09-09T01:17:04;18.23;;;11.93;;
52033;SDS011;38045;52.988;6.536;2022-09-09T01:22:13;10.90;;;8.38;;
52033;SDS011;38045;52.988;6.536;2022-09-09T01:25:01;10.50;;;8.77;;
52033;SDS011;38045;52.988;6.536;2022-09-09T01:27:31;11.32;;;8.52;;
52033;SDS011;38045;52.988;6.536;2022-09-09T01:29:59;11.50;;;8.55;;
52033;SDS011;38045;52.988;6.536;2022-09-09T01:38:09;13.20;;;9.25;;
52033;SDS011;38045;52.988;6.536;2022-09-09T01:40:35;10.77;;;8.73;;
52033;SDS011;38045;52.988;6.536;2022-09-09T01:43:01;10.68;;;9.55;;
52033;SDS011;38045;52.988;6.536;2022-09-09T01:45:27;14.35;;;8.57;;
52033;SDS011;38045;52.988;6.536;2022-09-09T01:47:53;8.73;;;7.82;;
52033;SDS011;38045;52.988;6.536;2022-09-09T01:50:19;13.75;;;9.13;;
52033;SDS011;38045;52.988;6.536;2022-09-09T01:52:46;12.30;;;10.30;;
52033;SDS011;38045;52.988;6.536;2022-09-09T01:55:15;14.45;;;9.60;;
52033;SDS011;38045;52.988;6.536;2022-09-09T02:00:08;9.75;;;8.73;;
52033;SDS011;38045;52.988;6.536;2022-09-09T02:07:49;10.00;;;9.07;;
52033;SDS011;38045;52.988;6.536;2022-09-09T02:10:31;10.82;;;9.82;;
52033;SDS011;38045;52.988;6.536;2022-09-09T02:13:08;13.75;;;9.48;;
52033;SDS011;38045;52.988;6.536;2022-09-09T02:15:42;15.32;;;9.63;;
52033;SDS011;38045;52.988;6.536;2022-09-09T02:18:15;15.30;;;9.33;;
52033;SDS011;38045;52.988;6.536;2022-09-09T02:20:49;11.75;;;9.13;;
52033;SDS011;38045;52.988;6.536;2022-09-09T02:23:16;9.00;;;7.95;;
52033;SDS011;38045;52.988;6.536;2022-09-09T02:25:44;9.68;;;7.43;;
52033;SDS011;38045;52.988;6.536;2022-09-09T02:28:11;10.73;;;9.07;;
52033;SDS011;38045;52.988;6.536;2022-09-09T02:30:39;10.77;;;9.27;;
52033;SDS011;38045;52.988;6.536;2022-09-09T02:33:06;14.18;;;7.45;;
52033;SDS011;38045;52.988;6.536;2022-09-09T02:38:04;10.40;;;7.32;;
52033;SDS011;38045;52.988;6.536;2022-09-09T02:40:33;12.15;;;8.05;;
52033;SDS011;38045;52.988;6.536;2022-09-09T02:42:58;11.63;;;7.47;;
52033;SDS011;38045;52.988;6.536;2022-09-09T02:45:25;9.75;;;7.85;;
52033;SDS011;38045;52.988;6.536;2022-09-09T02:50:25;7.37;;;6.40;;
52033;SDS011;38045;52.988;6.536;2022-09-09T02:55:41;11.10;;;7.15;;
52033;SDS011;38045;52.988;6.536;2022-09-09T02:58:12;7.40;;;6.68;;
52033;SDS011;38045;52.988;6.536;2022-09-09T03:00:45;7.38;;;6.68;;
52033;SDS011;38045;52.988;6.536;2022-09-09T03:03:13;12.20;;;6.85;;
52033;SDS011;38045;52.988;6.536;2022-09-09T03:05:38;7.70;;;6.25;;
52033;SDS011;38045;52.988;6.536;2022-09-09T03:08:04;13.93;;;6.88;;
52033;SDS011;38045;52.988;6.536;2022-09-09T03:10:30;10.20;;;7.35;;
52033;SDS011;38045;52.988;6.536;2022-09-09T03:12:57;9.30;;;8.23;;
52033;SDS011;38045;52.988;6.536;2022-09-09T03:15:23;9.35;;;5.82;;
52033;SDS011;38045;52.988;6.536;2022-09-09T03:17:49;15.88;;;7.78;;
52033;SDS011;38045;52.988;6.536;2022-09-09T03:20:16;9.15;;;7.72;;
52033;SDS011;38045;52.988;6.536;2022-09-09T03:22:41;11.60;;;7.05;;
52033;SDS011;38045;52.988;6.536;2022-09-09T03:25:08;10.20;;;7.38;;
52033;SDS011;38045;52.988;6.536;2022-09-09T03:27:34;8.27;;;6.68;;
52033;SDS011;38045;52.988;6.536;2022-09-09T03:30:00;7.50;;;6.15;;
52033;SDS011;38045;52.988;6.536;2022-09-09T03:32:29;8.13;;;6.83;;
52033;SDS011;38045;52.988;6.536;2022-09-09T03:34:56;11.10;;;7.32;;
52033;SDS011;38045;52.988;6.536;2022-09-09T03:37:21;10.60;;;6.75;;
52033;SDS011;38045;52.988;6.536;2022-09-09T03:39:47;7.70;;;6.57;;
52033;SDS011;38045;52.988;6.536;2022-09-09T03:42:13;7.22;;;6.47;;
52033;SDS011;38045;52.988;6.536;2022-09-09T03:44:40;7.80;;;6.05;;
52033;SDS011;38045;52.988;6.536;2022-09-09T03:47:07;12.80;;;6.55;;
52033;SDS011;38045;52.988;6.536;2022-09-09T03:49:33;7.68;;;6.45;;
52033;SDS011;38045;52.988;6.536;2022-09-09T03:51:58;13.40;;;6.50;;
52033;SDS011;38045;52.988;6.536;2022-09-09T03:54:24;6.00;;;5.45;;
52033;SDS011;38045;52.988;6.536;2022-09-09T03:56:50;9.68;;;4.88;;
52033;SDS011;38045;52.988;6.536;2022-09-09T03:59:15;6.07;;;5.30;;
52033;SDS011;38045;52.988;6.536;2022-09-09T04:01:41;8.55;;;5.50;;
52033;SDS011;38045;52.988;6.536;2022-09-09T04:04:07;6.20;;;5.57;;
52033;SDS011;38045;52.988;6.536;2022-09-09T04:06:33;6.88;;;5.07;;
52033;SDS011;38045;52.988;6.536;2022-09-09T04:08:59;6.75;;;5.88;;
52033;SDS011;38045;52.988;6.536;2022-09-09T04:11:27;9.38;;;6.15;;
52033;SDS011;38045;52.988;6.536;2022-09-09T04:13:53;9.18;;;6.75;;
52033;SDS011;38045;52.988;6.536;2022-09-09T04:16:19;7.38;;;6.78;;
52033;SDS011;38045;52.988;6.536;2022-09-09T04:18:45;7.85;;;7.05;;
52033;SDS011;38045;52.988;6.536;2022-09-09T04:21:11;7.10;;;5.93;;
52033;SDS011;38045;52.988;6.536;2022-09-09T04:23:37;14.00;;;7.75;;
52033;SDS011;38045;52.988;6.536;2022-09-09T04:26:03;10.60;;;6.88;;
52033;SDS011;38045;52.988;6.536;2022-09-09T04:28:31;9.52;;;7.15;;
52033;SDS011;38045;52.988;6.536;2022-09-09T04:31:31;8.98;;;6.72;;
52033;SDS011;38045;52.988;6.536;2022-09-09T04:33:50;8.75;;;7.93;;
52033;SDS011;38045;52.988;6.536;2022-09-09T04:36:16;9.20;;;6.72;;
52033;SDS011;38045;52.988;6.536;2022-09-09T04:38:44;8.85;;;7.85;;
52033;SDS011;38045;52.988;6.536;2022-09-09T04:41:10;10.68;;;8.55;;
52033;SDS011;38045;52.988;6.536;2022-09-09T04:43:37;10.48;;;8.35;;
52033;SDS011;38045;52.988;6.536;2022-09-09T04:46:03;9.38;;;8.00;;
52033;SDS011;38045;52.988;6.536;2022-09-09T04:48:29;10.07;;;9.02;;
52033;SDS011;38045;52.988;6.536;2022-09-09T04:51:06;9.60;;;7.82;;
52033;SDS011;38045;52.988;6.536;2022-09-09T04:53:35;10.55;;;8.35;;
52033;SDS011;38045;52.988;6.536;2022-09-09T04:56:03;11.27;;;9.77;;
52033;SDS011;38045;52.988;6.536;2022-09-09T04:58:31;10.18;;;8.73;;
52033;SDS011;38045;52.988;6.536;2022-09-09T05:01:06;9.32;;;8.40;;
52033;SDS011;38045;52.988;6.536;2022-09-09T05:03:33;10.20;;;8.35;;
52033;SDS011;38045;52.988;6.536;2022-09-09T05:06:03;14.00;;;9.70;;
52033;SDS011;38045;52.988;6.536;2022-09-09T05:08:33;11.15;;;9.68;;
52033;SDS011;38045;52.988;6.536;2022-09-09T05:11:00;26.35;;;10.40;;
52033;SDS011;38045;52.988;6.536;2022-09-09T05:13:26;12.05;;;9.95;;
52033;SDS011;38045;52.988;6.536;2022-09-09T05:15:52;11.32;;;9.57;;
52033;SDS011;38045;52.988;6.536;2022-09-09T05:18:18;13.88;;;11.52;;
52033;SDS011;38045;52.988;6.536;2022-09-09T05:20:44;11.10;;;9.85;;
52033;SDS011;38045;52.988;6.536;2022-09-09T05:23:10;12.68;;;10.38;;
52033;SDS011;38045;52.988;6.536;2022-09-09T05:25:37;13.68;;;10.38;;
52033;SDS011;38045;52.988;6.536;2022-09-09T05:28:02;15.38;;;10.10;;
52033;SDS011;38045;52.988;6.536;2022-09-09T05:30:28;17.35;;;11.60;;
52033;SDS011;38045;52.988;6.536;2022-09-09T05:32:55;15.60;;;13.55;;
52033;SDS011;38045;52.988;6.536;2022-09-09T05:35:21;11.35;;;10.00;;
52033;SDS011;38045;52.988;6.536;2022-09-09T05:37:48;16.70;;;12.52;;
52033;SDS011;38045;52.988;6.536;2022-09-09T05:40:13;10.95;;;9.85;;
52033;SDS011;38045;52.988;6.536;2022-09-09T05:42:39;12.60;;;11.27;;
52033;SDS011;38045;52.988;6.536;2022-09-09T05:45:06;11.90;;;9.88;;
52033;SDS011;38045;52.988;6.536;2022-09-09T05:47:33;11.88;;;10.35;;
52033;SDS011;38045;52.988;6.536;2022-09-09T05:49:58;10.38;;;9.05;;
52033;SDS011;38045;52.988;6.536;2022-09-09T05:52:24;12.07;;;9.15;;
52033;SDS011;38045;52.988;6.536;2022-09-09T05:54:51;11.25;;;9.07;;
52033;SDS011;38045;52.988;6.536;2022-09-09T05:57:16;11.63;;;10.43;;
52033;SDS011;38045;52.988;6.536;2022-09-09T05:59:42;11.63;;;10.27;;
52033;SDS011;38045;52.988;6.536;2022-09-09T06:02:08;11.10;;;10.05;;
52033;SDS011;38045;52.988;6.536;2022-09-09T06:04:34;9.85;;;8.98;;
52033;SDS011;38045;52.988;6.536;2022-09-09T06:06:59;11.60;;;9.60;;
52033;SDS011;38045;52.988;6.536;2022-09-09T06:09:26;10.18;;;8.82;;
52033;SDS011;38045;52.988;6.536;2022-09-09T06:11:51;11.48;;;10.15;;
52033;SDS011;38045;52.988;6.536;2022-09-09T06:14:17;10.68;;;9.57;;
52033;SDS011;38045;52.988;6.536;2022-09-09T06:16:46;11.30;;;9.15;;
52033;SDS011;38045;52.988;6.536;2022-09-09T06:19:12;13.32;;;10.40;;
52033;SDS011;38045;52.988;6.536;2022-09-09T06:21:38;11.07;;;9.98;;
52033;SDS011;38045;52.988;6.536;2022-09-09T06:24:04;9.10;;;8.18;;
52033;SDS011;38045;52.988;6.536;2022-09-09T06:26:31;13.43;;;9.27;;
52033;SDS011;38045;52.988;6.536;2022-09-09T06:28:58;11.90;;;9.40;;
52033;SDS011;38045;52.988;6.536;2022-09-09T06:31:25;10.98;;;9.38;;
52033;SDS011;38045;52.988;6.536;2022-09-09T06:33:55;10.43;;;8.05;;
52033;SDS011;38045;52.988;6.536;2022-09-09T06:36:22;10.57;;;9.43;;
52033;SDS011;38045;52.988;6.536;2022-09-09T06:38:50;10.57;;;9.68;;
52033;SDS011;38045;52.988;6.536;2022-09-09T06:41:16;12.10;;;9.75;;
52033;SDS011;38045;52.988;6.536;2022-09-09T06:43:44;10.55;;;9.35;;
52033;SDS011;38045;52.988;6.536;2022-09-09T06:48:38;10.65;;;8.40;;
52033;SDS011;38045;52.988;6.536;2022-09-09T06:51:10;13.05;;;10.38;;
52033;SDS011;38045;52.988;6.536;2022-09-09T06:53:38;10.73;;;9.63;;
52033;SDS011;38045;52.988;6.536;2022-09-09T06:56:26;11.52;;;8.32;;
52033;SDS011;38045;52.988;6.536;2022-09-09T06:58:55;9.07;;;8.18;;
52033;SDS011;38045;52.988;6.536;2022-09-09T07:01:26;10.90;;;8.60;;
52033;SDS011;38045;52.988;6.536;2022-09-09T07:03:57;8.57;;;7.70;;
52033;SDS011;38045;52.988;6.536;2022-09-09T07:06:30;10.95;;;8.38;;
52033;SDS011;38045;52.988;6.536;2022-09-09T07:08:58;9.82;;;7.95;;
52033;SDS011;38045;52.988;6.536;2022-09-09T07:11:29;14.07;;;10.85;;
52033;SDS011;38045;52.988;6.536;2022-09-09T07:14:02;10.40;;;8.18;;
52033;SDS011;38045;52.988;6.536;2022-09-09T07:16:28;11.30;;;9.18;;
52033;SDS011;38045;52.988;6.536;2022-09-09T07:18:54;12.70;;;8.95;;
52033;SDS011;38045;52.988;6.536;2022-09-09T07:21:23;10.40;;;7.90;;
52033;SDS011;38045;52.988;6.536;2022-09-09T07:23:51;13.00;;;8.43;;
52033;SDS011;38045;52.988;6.536;2022-09-09T07:26:18;13.55;;;11.32;;
52033;SDS011;38045;52.988;6.536;2022-09-09T07:28:46;10.30;;;9.20;;
52033;SDS011;38045;52.988;6.536;2022-09-09T07:31:13;11.27;;;8.20;;
52033;SDS011;38045;52.988;6.536;2022-09-09T07:36:12;9.15;;;8.25;;
52033;SDS011;38045;52.988;6.536;2022-09-09T07:38:46;9.00;;;8.10;;
52033;SDS011;38045;52.988;6.536;2022-09-09T07:41:21;8.73;;;7.57;;
52033;SDS011;38045;52.988;6.536;2022-09-09T07:43:49;8.95;;;7.07;;
52033;SDS011;38045;52.988;6.536;2022-09-09T07:46:16;8.77;;;7.95;;
52033;SDS011;38045;52.988;6.536;2022-09-09T07:48:44;7.13;;;6.38;;
52033;SDS011;38045;52.988;6.536;2022-09-09T07:51:12;8.73;;;7.88;;
52033;SDS011;38045;52.988;6.536;2022-09-09T07:53:44;9.13;;;8.23;;
52033;SDS011;38045;52.988;6.536;2022-09-09T07:56:12;11.57;;;8.00;;
52033;SDS011;38045;52.988;6.536;2022-09-09T07:58:42;11.95;;;7.95;;
52033;SDS011;38045;52.988;6.536;2022-09-09T08:01:10;8.60;;;6.95;;
52033;SDS011;38045;52.988;6.536;2022-09-09T08:03:42;9.30;;;8.13;;
52033;SDS011;38045;52.988;6.536;2022-09-09T08:06:12;12.18;;;8.05;;
52033;SDS011;38045;52.988;6.536;2022-09-09T08:08:39;6.65;;;5.28;;
52033;SDS011;38045;52.988;6.536;2022-09-09T08:11:08;7.57;;;6.40;;
52033;SDS011;38045;52.988;6.536;2022-09-09T08:13:36;8.07;;;6.82;;
52033;SDS011;38045;52.988;6.536;2022-09-09T08:16:03;9.45;;;7.38;;
52033;SDS011;38045;52.988;6.536;2022-09-09T08:18:34;14.55;;;7.10;;
52033;SDS011;38045;52.988;6.536;2022-09-09T08:23:40;10.48;;;7.45;;
52033;SDS011;38045;52.988;6.536;2022-09-09T08:26:10;14.13;;;9.15;;
52033;SDS011;38045;52.988;6.536;2022-09-09T08:28:38;8.20;;;7.55;;
52033;SDS011;38045;52.988;6.536;2022-09-09T08:31:51;8.95;;;7.35;;
52033;SDS011;38045;52.988;6.536;2022-09-09T08:33:52;9.35;;;7.57;;
52033;SDS011;38045;52.988;6.536;2022-09-09T08:36:19;8.07;;;7.18;;
52033;SDS011;38045;52.988;6.536;2022-09-09T08:38:50;22.70;;;8.43;;
52033;SDS011;38045;52.988;6.536;2022-09-09T08:52:03;9.23;;;7.18;;
52033;SDS011;38045;52.988;6.536;2022-09-09T08:54:40;11.38;;;8.73;;
52033;SDS011;38045;52.988;6.536;2022-09-09T08:57:07;10.45;;;8.25;;
52033;SDS011;38045;52.988;6.536;2022-09-09T08:59:38;8.30;;;7.50;;
52033;SDS011;38045;52.988;6.536;2022-09-09T09:04:50;12.65;;;10.00;;
52033;SDS011;38045;52.988;6.536;2022-09-09T09:12:46;9.98;;;7.30;;
52033;SDS011;38045;52.988;6.536;2022-09-09T09:15:46;10.25;;;6.93;;
52033;SDS011;38045;52.988;6.536;2022-09-09T09:18:07;9.93;;;5.88;;
52033;SDS011;38045;52.988;6.536;2022-09-09T09:23:43;9.05;;;5.40;;
52033;SDS011;38045;52.988;6.536;2022-09-09T09:26:15;6.90;;;4.95;;
52033;SDS011;38045;52.988;6.536;2022-09-09T09:28:42;8.00;;;5.10;;
52033;SDS011;38045;52.988;6.536;2022-09-09T09:31:11;5.43;;;4.65;;
52033;SDS011;38045;52.988;6.536;2022-09-09T09:36:06;8.17;;;4.27;;
52033;SDS011;38045;52.988;6.536;2022-09-09T09:38:33;6.88;;;3.33;;
52033;SDS011;38045;52.988;6.536;2022-09-09T09:41:00;8.77;;;3.88;;
52033;SDS011;38045;52.988;6.536;2022-09-09T09:45:57;7.43;;;3.47;;
52033;SDS011;38045;52.988;6.536;2022-09-09T09:48:23;8.02;;;3.50;;
52033;SDS011;38045;52.988;6.536;2022-09-09T09:50:59;8.52;;;3.80;;
52033;SDS011;38045;52.988;6.536;2022-09-09T09:53:31;10.95;;;4.65;;
52033;SDS011;38045;52.988;6.536;2022-09-09T09:56:09;11.80;;;4.03;;
52033;SDS011;38045;52.988;6.536;2022-09-09T10:04:02;6.82;;;4.32;;
52033;SDS011;38045;52.988;6.536;2022-09-09T10:06:38;11.38;;;3.55;;
52033;SDS011;38045;52.988;6.536;2022-09-09T10:09:20;5.68;;;2.47;;
52033;SDS011;38045;52.988;6.536;2022-09-09T10:15:01;8.48;;;4.10;;
52033;SDS011;38045;52.988;6.536;2022-09-09T10:17:42;5.95;;;3.55;;
52033;SDS011;38045;52.988;6.536;2022-09-09T10:26:06;6.57;;;2.50;;
52033;SDS011;38045;52.988;6.536;2022-09-09T10:28:51;5.63;;;2.42;;
52033;SDS011;38045;52.988;6.536;2022-09-09T10:31:56;3.88;;;1.67;;
52033;SDS011;38045;52.988;6.536;2022-09-09T10:34:54;3.38;;;2.00;;
52033;SDS011;38045;52.988;6.536;2022-09-09T10:40:03;8.10;;;2.85;;
52033;SDS011;38045;52.988;6.536;2022-09-09T10:42:34;7.53;;;2.55;;
52033;SDS011;38045;52.988;6.536;2022-09-09T10:45:21;13.77;;;2.85;;
52033;SDS011;38045;52.988;6.536;2022-09-09T10:48:54;6.45;;;1.90;;
52033;SDS011;38045;52.988;6.536;2022-09-09T10:56:32;6.20;;;2.47;;
52033;SDS011;38045;52.988;6.536;2022-09-09T10:59:07;5.18;;;2.22;;
52033;SDS011;38045;52.988;6.536;2022-09-09T11:04:19;4.50;;;1.98;;
52033;SDS011;38045;52.988;6.536;2022-09-09T11:06:50;14.52;;;2.15;;
52033;SDS011;38045;52.988;6.536;2022-09-09T11:09:20;5.47;;;2.22;;
52033;SDS011;38045;52.988;6.536;2022-09-09T11:11:56;5.40;;;2.40;;
52033;SDS011;38045;52.988;6.536;2022-09-09T11:14:28;6.20;;;2.28;;
52033;SDS011;38045;52.988;6.536;2022-09-09T11:17:10;3.00;;;1.92;;
52033;SDS011;38045;52.988;6.536;2022-09-09T11:19:43;4.72;;;1.95;;
52033;SDS011;38045;52.988;6.536;2022-09-09T11:22:15;7.88;;;2.15;;
52033;SDS011;38045;52.988;6.536;2022-09-09T11:27:27;4.38;;;2.65;;
52033;SDS011;38045;52.988;6.536;2022-09-09T11:30:18;5.35;;;2.35;;
52033;SDS011;38045;52.988;6.536;2022-09-09T11:38:37;9.40;;;2.50;;
52033;SDS011;38045;52.988;6.536;2022-09-09T11:41:11;5.95;;;1.50;;
52033;SDS011;38045;52.988;6.536;2022-09-09T11:43:40;5.30;;;2.15;;
52033;SDS011;38045;52.988;6.536;2022-09-09T11:46:06;5.57;;;1.42;;
52033;SDS011;38045;52.988;6.536;2022-09-09T11:48:36;3.17;;;0.95;;
52033;SDS011;38045;52.988;6.536;2022-09-09T11:51:25;4.25;;;1.50;;
52033;SDS011;38045;52.988;6.536;2022-09-09T11:53:59;2.58;;;1.17;;
52033;SDS011;38045;52.988;6.536;2022-09-09T11:56:31;6.40;;;2.45;;
52033;SDS011;38045;52.988;6.536;2022-09-09T12:01:30;5.82;;;1.27;;
52033;SDS011;38045;52.988;6.536;2022-09-09T12:06:59;5.38;;;2.42;;
52033;SDS011;38045;52.988;6.536;2022-09-09T12:09:50;4.88;;;1.88;;
52033;SDS011;38045;52.988;6.536;2022-09-09T12:25:33;3.67;;;1.40;;
52033;SDS011;38045;52.988;6.536;2022-09-09T12:28:25;8.15;;;2.28;;
52033;SDS011;38045;52.988;6.536;2022-09-09T12:31:06;3.63;;;2.05;;
52033;SDS011;38045;52.988;6.536;2022-09-09T12:34:11;3.03;;;1.48;;
52033;SDS011;38045;52.988;6.536;2022-09-09T12:37:06;4.15;;;2.08;;
52033;SDS011;38045;52.988;6.536;2022-09-09T12:39:56;4.72;;;2.65;;
52033;SDS011;38045;52.988;6.536;2022-09-09T12:42:24;5.50;;;2.13;;
52033;SDS011;38045;52.988;6.536;2022-09-09T12:44:58;5.57;;;2.40;;
52033;SDS011;38045;52.988;6.536;2022-09-09T12:47:31;6.57;;;2.08;;
52033;SDS011;38045;52.988;6.536;2022-09-09T12:50:20;2.50;;;1.40;;
52033;SDS011;38045;52.988;6.536;2022-09-09T12:52:50;9.38;;;2.25;;
52033;SDS011;38045;52.988;6.536;2022-09-09T12:55:20;3.92;;;1.85;;
52033;SDS011;38045;52.988;6.536;2022-09-09T12:57:50;6.38;;;1.90;;
52033;SDS011;38045;52.988;6.536;2022-09-09T13:00:18;5.47;;;1.90;;
52033;SDS011;38045;52.988;6.536;2022-09-09T13:02:55;7.18;;;1.20;;
52033;SDS011;38045;52.988;6.536;2022-09-09T13:05:27;6.50;;;2.40;;
52033;SDS011;38045;52.988;6.536;2022-09-09T13:08:03;8.38;;;1.88;;
52033;SDS011;38045;52.988;6.536;2022-09-09T13:10:34;7.63;;;1.55;;
52033;SDS011;38045;52.988;6.536;2022-09-09T13:13:03;6.05;;;2.20;;
52033;SDS011;38045;52.988;6.536;2022-09-09T13:15:36;2.83;;;1.02;;
52033;SDS011;38045;52.988;6.536;2022-09-09T13:18:03;10.77;;;1.83;;
52033;SDS011;38045;52.988;6.536;2022-09-09T13:20:33;6.90;;;1.92;;
52033;SDS011;38045;52.988;6.536;2022-09-09T13:22:58;7.10;;;2.20;;
52033;SDS011;38045;52.988;6.536;2022-09-09T13:25:25;5.03;;;2.05;;
52033;SDS011;38045;52.988;6.536;2022-09-09T13:30:22;4.97;;;1.98;;
52033;SDS011;38045;52.988;6.536;2022-09-09T13:33:18;8.45;;;1.27;;
52033;SDS011;38045;52.988;6.536;2022-09-09T13:35:49;9.02;;;1.42;;
52033;SDS011;38045;52.988;6.536;2022-09-09T13:38:23;7.75;;;2.67;;
52033;SDS011;38045;52.988;6.536;2022-09-09T13:40:57;5.40;;;1.98;;
52033;SDS011;38045;52.988;6.536;2022-09-09T13:43:26;5.60;;;1.33;;
52033;SDS011;38045;52.988;6.536;2022-09-09T13:45:57;2.47;;;1.30;;
52033;SDS011;38045;52.988;6.536;2022-09-09T13:48:26;2.92;;;1.33;;
52033;SDS011;38045;52.988;6.536;2022-09-09T13:50:56;4.13;;;1.30;;
52033;SDS011;38045;52.988;6.536;2022-09-09T13:53:22;4.97;;;1.27;;
52033;SDS011;38045;52.988;6.536;2022-09-09T13:55:48;3.70;;;1.20;;
52033;SDS011;38045;52.988;6.536;2022-09-09T13:58:15;1.17;;;0.93;;
52033;SDS011;38045;52.988;6.536;2022-09-09T14:00:43;3.97;;;1.13;;
52033;SDS011;38045;52.988;6.536;2022-09-09T14:03:09;2.30;;;1.13;;
52033;SDS011;38045;52.988;6.536;2022-09-09T14:05:35;2.15;;;0.70;;
52033;SDS011;38045;52.988;6.536;2022-09-09T14:08:03;5.72;;;1.73;;
52033;SDS011;38045;52.988;6.536;2022-09-09T14:10:29;1.90;;;0.83;;
52033;SDS011;38045;52.988;6.536;2022-09-09T14:12:55;1.90;;;0.43;;
52033;SDS011;38045;52.988;6.536;2022-09-09T14:15:21;7.13;;;1.35;;
52033;SDS011;38045;52.988;6.536;2022-09-09T14:17:47;1.05;;;0.43;;
52033;SDS011;38045;52.988;6.536;2022-09-09T14:20:13;2.15;;;0.70;;
52033;SDS011;38045;52.988;6.536;2022-09-09T14:22:40;1.98;;;1.35;;
52033;SDS011;38045;52.988;6.536;2022-09-09T14:25:06;2.35;;;0.50;;
52033;SDS011;38045;52.988;6.536;2022-09-09T14:27:32;1.55;;;1.08;;
52033;SDS011;38045;52.988;6.536;2022-09-09T14:29:58;4.18;;;0.75;;
52033;SDS011;38045;52.988;6.536;2022-09-09T14:32:25;5.00;;;2.50;;
52033;SDS011;38045;52.988;6.536;2022-09-09T14:34:51;2.53;;;0.93;;
52033;SDS011;38045;52.988;6.536;2022-09-09T14:37:17;3.28;;;1.70;;
52033;SDS011;38045;52.988;6.536;2022-09-09T14:39:43;3.50;;;1.00;;
52033;SDS011;38045;52.988;6.536;2022-09-09T14:42:13;1.10;;;0.60;;
52033;SDS011;38045;52.988;6.536;2022-09-09T14:44:39;4.25;;;1.20;;
52033;SDS011;38045;52.988;6.536;2022-09-09T14:47:06;1.65;;;0.35;;
52033;SDS011;38045;52.988;6.536;2022-09-09T14:49:33;1.50;;;0.40;;
52033;SDS011;38045;52.988;6.536;2022-09-09T14:54:28;1.00;;;0.70;;
52033;SDS011;38045;52.988;6.536;2022-09-09T14:56:54;0.63;;;0.35;;
52033;SDS011;38045;52.988;6.536;2022-09-09T14:59:19;0.63;;;0.38;;
52033;SDS011;38045;52.988;6.536;2022-09-09T15:01:45;1.15;;;0.30;;
52033;SDS011;38045;52.988;6.536;2022-09-09T15:04:11;2.55;;;0.57;;
52033;SDS011;38045;52.988;6.536;2022-09-09T15:06:39;1.08;;;0.70;;
52033;SDS011;38045;52.988;6.536;2022-09-09T15:09:07;1.20;;;0.93;;
52033;SDS011;38045;52.988;6.536;2022-09-09T15:11:34;1.90;;;0.45;;
52033;SDS011;38045;52.988;6.536;2022-09-09T15:14:05;0.30;;;0.20;;
52033;SDS011;38045;52.988;6.536;2022-09-09T15:16:32;2.30;;;1.15;;
52033;SDS011;38045;52.988;6.536;2022-09-09T15:18:58;1.85;;;1.08;;
52033;SDS011;38045;52.988;6.536;2022-09-09T15:21:26;5.15;;;0.60;;
52033;SDS011;38045;52.988;6.536;2022-09-09T15:23:53;2.15;;;1.08;;
52033;SDS011;38045;52.988;6.536;2022-09-09T15:26:20;2.97;;;0.80;;
52033;SDS011;38045;52.988;6.536;2022-09-09T15:28:46;4.38;;;0.93;;
52033;SDS011;38045;52.988;6.536;2022-09-09T15:31:31;5.25;;;1.33;;
52033;SDS011;38045;52.988;6.536;2022-09-09T15:34:01;1.88;;;0.93;;
52033;SDS011;38045;52.988;6.536;2022-09-09T15:36:35;1.88;;;0.75;;
52033;SDS011;38045;52.988;6.536;2022-09-09T15:39:03;1.40;;;0.80;;
52033;SDS011;38045;52.988;6.536;2022-09-09T15:41:31;2.75;;;1.05;;
52033;SDS011;38045;52.988;6.536;2022-09-09T15:43:57;3.60;;;1.30;;
52033;SDS011;38045;52.988;6.536;2022-09-09T15:46:24;1.50;;;0.65;;
52033;SDS011;38045;52.988;6.536;2022-09-09T15:51:37;6.32;;;1.98;;
52033;SDS011;38045;52.988;6.536;2022-09-09T15:54:04;3.70;;;1.88;;
52033;SDS011;38045;52.988;6.536;2022-09-09T15:56:30;2.45;;;0.75;;
52033;SDS011;38045;52.988;6.536;2022-09-09T15:58:57;2.78;;;1.10;;
52033;SDS011;38045;52.988;6.536;2022-09-09T16:01:24;3.03;;;1.77;;
52033;SDS011;38045;52.988;6.536;2022-09-09T16:03:51;3.60;;;1.15;;
52033;SDS011;38045;52.988;6.536;2022-09-09T16:06:18;3.17;;;0.88;;
52033;SDS011;38045;52.988;6.536;2022-09-09T16:08:46;0.47;;;0.43;;
52033;SDS011;38045;52.988;6.536;2022-09-09T16:13:47;1.42;;;0.98;;
52033;SDS011;38045;52.988;6.536;2022-09-09T16:16:15;3.50;;;1.17;;
52033;SDS011;38045;52.988;6.536;2022-09-09T16:18:44;1.38;;;1.00;;
52033;SDS011;38045;52.988;6.536;2022-09-09T16:21:13;2.97;;;1.92;;
52033;SDS011;38045;52.988;6.536;2022-09-09T16:23:41;2.03;;;0.93;;
52033;SDS011;38045;52.988;6.536;2022-09-09T16:26:08;3.42;;;1.27;;
52033;SDS011;38045;52.988;6.536;2022-09-09T16:28:36;2.53;;;2.22;;
52033;SDS011;38045;52.988;6.536;2022-09-09T16:31:05;4.88;;;1.13;;
52033;SDS011;38045;52.988;6.536;2022-09-09T16:33:32;0.80;;;0.80;;
52033;SDS011;38045;52.988;6.536;2022-09-09T16:35:57;2.83;;;1.40;;
52033;SDS011;38045;52.988;6.536;2022-09-09T16:38:29;2.85;;;1.52;;
52033;SDS011;38045;52.988;6.536;2022-09-09T16:40:58;1.80;;;1.20;;
52033;SDS011;38045;52.988;6.536;2022-09-09T16:43:24;1.60;;;0.88;;
52033;SDS011;38045;52.988;6.536;2022-09-09T16:45:50;10.68;;;2.47;;
52033;SDS011;38045;52.988;6.536;2022-09-09T16:48:15;2.65;;;1.58;;
52033;SDS011;38045;52.988;6.536;2022-09-09T16:50:41;2.63;;;0.82;;
52033;SDS011;38045;52.988;6.536;2022-09-09T16:53:07;3.35;;;2.03;;
52033;SDS011;38045;52.988;6.536;2022-09-09T16:55:37;1.67;;;1.48;;
52033;SDS011;38045;52.988;6.536;2022-09-09T16:58:06;4.05;;;1.70;;
52033;SDS011;38045;52.988;6.536;2022-09-09T17:00:33;3.75;;;1.73;;
52033;SDS011;38045;52.988;6.536;2022-09-09T17:02:59;2.70;;;1.17;;
52033;SDS011;38045;52.988;6.536;2022-09-09T17:05:25;3.40;;;1.63;;
52033;SDS011;38045;52.988;6.536;2022-09-09T17:07:51;1.55;;;1.10;;
52033;SDS011;38045;52.988;6.536;2022-09-09T17:10:16;1.80;;;1.55;;
52033;SDS011;38045;52.988;6.536;2022-09-09T17:12:42;3.30;;;1.65;;
52033;SDS011;38045;52.988;6.536;2022-09-09T17:15:08;3.10;;;1.00;;
52033;SDS011;38045;52.988;6.536;2022-09-09T17:17:34;2.35;;;1.40;;
52033;SDS011;38045;52.988;6.536;2022-09-09T17:20:00;2.40;;;1.08;;